createdAt,value
2019-02-26T00:00:34.174Z,99.99
2019-02-26T00:01:34.182Z,99.99
2019-02-26T00:02:34.271Z,99.99
2019-02-26T00:03:35.421Z,99.99
2019-02-26T00:04:35.116Z,99.99
2019-02-26T00:05:34.386Z,99.99
2019-02-26T00:06:34.528Z,99.99
2019-02-26T00:07:34.432Z,99.99
2019-02-26T00:08:34.468Z,99.99
2019-02-26T00:09:35.365Z,99.99
2019-02-26T00:10:36.468Z,99.99
2019-02-26T00:11:36.165Z,99.99
2019-02-26T00:12:35.614Z,99.99
2019-02-26T00:13:36.534Z,99.99
2019-02-26T00:14:34.708Z,99.99
2019-02-26T00:15:35.874Z,99.99
2019-02-26T00:16:37.616Z,99.99
2019-02-26T00:17:38.609Z,99.99
2019-02-26T00:18:34.892Z,99.99
2019-02-26T00:19:34.910Z,99.99
2019-02-26T00:20:37.159Z,99.99
2019-02-26T00:21:35.012Z,99.99
2019-02-26T00:22:36.642Z,99.99
2019-02-26T00:23:35.074Z,99.99
2019-02-26T00:24:35.216Z,99.99
2019-02-26T00:25:35.152Z,99.99
2019-02-26T00:26:36.235Z,99.99
2019-02-26T00:27:35.248Z,99.99
2019-02-26T00:28:36.537Z,99.99
2019-02-26T00:29:35.318Z,99.99
2019-02-26T00:30:37.420Z,99.99
2019-02-26T00:31:35.396Z,99.99
2019-02-26T00:32:36.612Z,99.99
2019-02-26T00:33:35.475Z,99.99
2019-02-26T00:34:37.331Z,99.99
2019-02-26T00:35:35.559Z,99.99
2019-02-26T00:36:36.383Z,99.99
2019-02-26T00:37:35.655Z,99.99
2019-02-26T00:38:37.558Z,99.99
2019-02-26T00:39:35.718Z,99.99
2019-02-26T00:40:37.089Z,99.99
2019-02-26T00:41:35.878Z,99.99
2019-02-26T00:42:36.085Z,99.99
2019-02-26T00:43:36.942Z,99.99
2019-02-26T00:44:37.331Z,99.99
2019-02-26T00:45:38.520Z,99.99
2019-02-26T00:46:36.986Z,99.99
2019-02-26T00:47:36.911Z,99.99
2019-02-26T00:48:38.320Z,99.99
2019-02-26T00:49:36.123Z,99.99
2019-02-26T00:50:37.401Z,99.99
2019-02-26T00:51:36.197Z,99.99
2019-02-26T00:52:37.567Z,99.99
2019-02-26T00:53:36.293Z,99.99
2019-02-26T00:54:36.625Z,99.99
2019-02-26T00:55:37.978Z,99.99
2019-02-26T00:56:36.846Z,99.99
2019-02-26T00:57:38.317Z,99.99
2019-02-26T00:58:38.947Z,99.99
2019-02-26T00:59:37.020Z,99.99
2019-02-26T01:00:36.564Z,99.99
2019-02-26T01:01:36.608Z,99.99
2019-02-26T01:02:36.641Z,99.99
2019-02-26T01:03:36.707Z,99.99
2019-02-26T01:04:36.790Z,99.99
2019-02-26T01:05:38.615Z,99.99
2019-02-26T01:06:36.807Z,99.99
2019-02-26T01:07:36.849Z,99.99
2019-02-26T01:08:37.942Z,99.99
2019-02-26T01:09:36.926Z,99.99
2019-02-26T01:10:39.301Z,99.99
2019-02-26T01:11:37.094Z,99.99
2019-02-26T01:12:37.614Z,99.99
2019-02-26T01:13:37.095Z,99.99
2019-02-26T01:14:39.044Z,99.99
2019-02-26T01:15:37.158Z,99.99
2019-02-26T01:16:39.221Z,99.99
2019-02-26T01:17:38.349Z,99.99
2019-02-26T01:18:37.346Z,99.99
2019-02-26T01:19:38.665Z,99.99
2019-02-26T01:20:37.360Z,99.99
2019-02-26T01:21:37.925Z,99.99
2019-02-26T01:22:37.753Z,99.99
2019-02-26T01:23:37.499Z,99.99
2019-02-26T01:24:37.516Z,99.99
2019-02-26T01:25:38.765Z,99.99
2019-02-26T01:26:37.597Z,99.99
2019-02-26T01:27:37.648Z,99.99
2019-02-26T01:28:39.586Z,99.99
2019-02-26T01:29:37.736Z,99.99
2019-02-26T01:30:37.831Z,99.99
2019-02-26T01:31:37.801Z,99.99
2019-02-26T01:32:37.837Z,99.99
2019-02-26T01:33:37.879Z,99.99
2019-02-26T01:34:38.793Z,99.99
2019-02-26T01:35:37.957Z,99.99
2019-02-26T01:36:38.306Z,99.99
2019-02-26T01:37:38.035Z,99.99
2019-02-26T01:38:41.539Z,99.99
2019-02-26T01:39:38.315Z,99.99
2019-02-26T01:40:41.507Z,99.99
2019-02-26T01:41:41.368Z,99.99
2019-02-26T01:42:38.232Z,99.99
2019-02-26T01:43:38.277Z,99.99
2019-02-26T01:44:39.927Z,99.99
2019-02-26T01:45:38.358Z,99.99
2019-02-26T01:46:38.989Z,99.99
2019-02-26T01:47:40.354Z,99.99
2019-02-26T01:48:39.421Z,99.99
2019-02-26T01:49:39.771Z,99.99
2019-02-26T01:50:40.611Z,99.99
2019-02-26T01:51:38.593Z,99.99
2019-02-26T01:52:38.632Z,99.99
2019-02-26T01:53:38.692Z,99.99
2019-02-26T01:54:39.614Z,99.99
2019-02-26T01:55:39.391Z,99.99
2019-02-26T01:56:38.787Z,99.99
2019-02-26T01:57:42.660Z,99.99
2019-02-26T01:58:38.870Z,99.99
2019-02-26T01:59:38.933Z,99.99
2019-02-26T02:00:40.915Z,99.99
2019-02-26T02:01:42.044Z,99.99
2019-02-26T02:02:39.028Z,99.99
2019-02-26T02:03:39.067Z,99.99
2019-02-26T02:04:41.107Z,99.99
2019-02-26T02:05:39.146Z,99.99
2019-02-26T02:06:41.222Z,99.99
2019-02-26T02:07:39.235Z,99.99
2019-02-26T02:08:41.610Z,99.99
2019-02-26T02:09:39.309Z,99.99
2019-02-26T02:10:39.341Z,99.99
2019-02-26T02:11:40.749Z,99.99
2019-02-26T02:12:41.393Z,99.99
2019-02-26T02:13:41.440Z,99.99
2019-02-26T02:14:39.505Z,99.99
2019-02-26T02:15:40.018Z,99.99
2019-02-26T02:16:39.605Z,99.99
2019-02-26T02:17:40.113Z,99.99
2019-02-26T02:18:43.666Z,99.99
2019-02-26T02:19:39.698Z,99.99
2019-02-26T02:20:39.767Z,99.99
2019-02-26T02:21:39.780Z,99.99
2019-02-26T02:22:40.389Z,99.99
2019-02-26T02:23:39.854Z,99.99
2019-02-26T02:24:41.808Z,99.99
2019-02-26T02:25:40.941Z,99.99
2019-02-26T02:26:41.113Z,99.99
2019-02-26T02:27:40.014Z,99.99
2019-02-26T02:28:40.113Z,99.99
2019-02-26T02:29:41.964Z,99.99
2019-02-26T02:30:40.157Z,99.99
2019-02-26T02:31:40.278Z,99.99
2019-02-26T02:32:40.210Z,99.99
2019-02-26T02:33:40.253Z,99.99
2019-02-26T02:34:42.937Z,99.99
2019-02-26T02:35:40.374Z,99.99
2019-02-26T02:36:40.389Z,99.99
2019-02-26T02:37:40.427Z,99.99
2019-02-26T02:38:40.445Z,99.99
2019-02-26T02:39:40.485Z,99.99
2019-02-26T02:40:43.013Z,99.99
2019-02-26T02:41:42.092Z,99.99
2019-02-26T02:42:42.966Z,99.99
2019-02-26T02:43:40.643Z,99.99
2019-02-26T02:44:42.374Z,99.99
2019-02-26T02:45:40.725Z,99.99
2019-02-26T02:46:42.542Z,99.99
2019-02-26T02:47:40.817Z,99.99
2019-02-26T02:48:40.840Z,99.99
2019-02-26T02:49:42.466Z,99.99
2019-02-26T02:50:40.919Z,99.99
2019-02-26T02:51:40.982Z,99.99
2019-02-26T02:52:40.992Z,99.99
2019-02-26T02:53:41.036Z,99.99
2019-02-26T02:54:43.474Z,99.99
2019-02-26T02:55:43.302Z,99.99
2019-02-26T02:56:42.380Z,99.99
2019-02-26T02:57:41.192Z,99.99
2019-02-26T02:58:43.582Z,99.99
2019-02-26T02:59:42.286Z,99.99
2019-02-26T03:00:41.311Z,99.99
2019-02-26T03:01:43.026Z,99.99
2019-02-26T03:02:43.271Z,99.99
2019-02-26T03:03:41.435Z,99.99
2019-02-26T03:04:41.474Z,99.99
2019-02-26T03:05:43.344Z,99.99
2019-02-26T03:06:41.549Z,99.99
2019-02-26T03:07:42.365Z,99.99
2019-02-26T03:08:42.365Z,99.99
2019-02-26T03:09:43.200Z,99.99
2019-02-26T03:10:43.105Z,99.99
2019-02-26T03:11:44.048Z,99.99
2019-02-26T03:12:44.094Z,99.99
2019-02-26T03:13:43.069Z,99.99
2019-02-26T03:14:42.477Z,99.99
2019-02-26T03:15:41.899Z,99.99
2019-02-26T03:16:42.475Z,99.99
2019-02-26T03:17:42.106Z,99.99
2019-02-26T03:18:42.019Z,99.99
2019-02-26T03:19:43.682Z,99.99
2019-02-26T03:20:42.092Z,99.99
2019-02-26T03:21:44.524Z,99.99
2019-02-26T03:22:45.320Z,99.99
2019-02-26T03:23:43.521Z,99.99
2019-02-26T03:24:42.254Z,99.99
2019-02-26T03:25:44.537Z,99.99
2019-02-26T03:26:42.328Z,99.99
2019-02-26T03:27:42.677Z,99.99
2019-02-26T03:28:44.453Z,99.99
2019-02-26T03:29:42.447Z,99.99
2019-02-26T03:30:44.148Z,99.99
2019-02-26T03:31:46.739Z,99.99
2019-02-26T03:32:46.155Z,99.99
2019-02-26T03:33:42.685Z,99.99
2019-02-26T03:34:42.651Z,99.99
2019-02-26T03:35:42.676Z,99.99
2019-02-26T03:36:45.411Z,99.99
2019-02-26T03:37:42.755Z,99.99
2019-02-26T03:38:44.127Z,99.99
2019-02-26T03:39:42.835Z,99.99
2019-02-26T03:40:42.965Z,99.99
2019-02-26T03:41:43.183Z,99.99
2019-02-26T03:42:43.441Z,99.99
2019-02-26T03:43:43.012Z,99.99
2019-02-26T03:44:46.193Z,99.99
2019-02-26T03:45:47.302Z,99.99
2019-02-26T03:46:43.114Z,99.99
2019-02-26T03:47:43.144Z,99.99
2019-02-26T03:48:43.204Z,99.99
2019-02-26T03:49:43.231Z,99.99
2019-02-26T03:50:44.567Z,99.99
2019-02-26T03:51:43.429Z,99.99
2019-02-26T03:52:43.339Z,99.99
2019-02-26T03:53:44.187Z,99.99
2019-02-26T03:54:45.405Z,99.99
2019-02-26T03:55:43.979Z,99.99
2019-02-26T03:56:43.503Z,99.99
2019-02-26T03:57:46.926Z,99.99
2019-02-26T03:58:43.610Z,99.99
2019-02-26T03:59:43.616Z,99.99
2019-02-26T04:00:44.775Z,99.99
2019-02-26T04:01:43.690Z,99.99
2019-02-26T04:02:47.698Z,99.99
2019-02-26T04:03:43.793Z,99.99
2019-02-26T04:04:45.868Z,99.99
2019-02-26T04:05:43.847Z,99.99
2019-02-26T04:06:46.712Z,99.99
2019-02-26T04:07:43.921Z,99.99
2019-02-26T04:08:46.187Z,99.99
2019-02-26T04:09:44.399Z,99.99
2019-02-26T04:10:45.640Z,99.99
2019-02-26T04:11:47.419Z,99.99
2019-02-26T04:12:45.189Z,99.99
2019-02-26T04:13:45.922Z,99.99
2019-02-26T04:14:44.214Z,99.99
2019-02-26T04:15:44.231Z,99.99
2019-02-26T04:16:44.282Z,99.99
2019-02-26T04:17:44.318Z,99.99
2019-02-26T04:18:44.354Z,99.99
2019-02-26T04:19:44.676Z,99.99
2019-02-26T04:20:44.500Z,99.99
2019-02-26T04:21:44.474Z,99.99
2019-02-26T04:22:48.972Z,99.99
2019-02-26T04:23:46.525Z,99.99
2019-02-26T04:24:44.609Z,99.99
2019-02-26T04:25:44.619Z,99.99
2019-02-26T04:26:44.771Z,99.99
2019-02-26T04:27:44.698Z,99.99
2019-02-26T04:28:45.534Z,99.99
2019-02-26T04:29:46.897Z,99.99
2019-02-26T04:30:47.185Z,99.99
2019-02-26T04:31:47.077Z,99.99
2019-02-26T04:32:46.234Z,99.99
2019-02-26T04:33:44.939Z,99.99
2019-02-26T04:34:44.993Z,99.99
2019-02-26T04:35:47.603Z,99.99
2019-02-26T04:36:47.088Z,99.99
2019-02-26T04:37:45.089Z,99.99
2019-02-26T04:38:45.591Z,99.99
2019-02-26T04:39:47.496Z,99.99
2019-02-26T04:40:45.253Z,99.99
2019-02-26T04:41:45.245Z,99.99
2019-02-26T04:42:45.997Z,99.99
2019-02-26T04:43:45.330Z,99.99
2019-02-26T04:44:47.659Z,99.99
2019-02-26T04:45:45.427Z,99.99
2019-02-26T04:46:45.437Z,99.99
2019-02-26T04:47:46.629Z,99.99
2019-02-26T04:48:45.515Z,99.99
2019-02-26T04:49:45.567Z,99.99
2019-02-26T04:50:45.622Z,99.99
2019-02-26T04:51:47.785Z,99.99
2019-02-26T04:52:45.684Z,99.99
2019-02-26T04:53:48.571Z,99.99
2019-02-26T04:54:45.748Z,99.99
2019-02-26T04:55:45.811Z,99.99
2019-02-26T04:56:48.017Z,99.99
2019-02-26T04:57:48.503Z,99.99
2019-02-26T04:58:47.765Z,99.99
2019-02-26T04:59:45.953Z,99.99
2019-02-26T05:00:45.990Z,99.99
2019-02-26T05:01:47.226Z,99.99
2019-02-26T05:02:46.062Z,99.99
2019-02-26T05:03:46.102Z,99.99
2019-02-26T05:04:46.143Z,99.99
2019-02-26T05:05:46.214Z,99.99
2019-02-26T05:06:46.252Z,99.99
2019-02-26T05:07:47.033Z,99.99
2019-02-26T05:08:46.316Z,99.99
2019-02-26T05:09:47.528Z,99.99
2019-02-26T05:10:48.537Z,99.99
2019-02-26T05:11:46.431Z,99.99
2019-02-26T05:12:46.476Z,99.99
2019-02-26T05:13:46.488Z,99.99
2019-02-26T05:14:46.528Z,99.99
2019-02-26T05:15:46.571Z,99.99
2019-02-26T05:16:46.609Z,99.99
2019-02-26T05:17:46.659Z,99.99
2019-02-26T05:18:49.033Z,99.99
2019-02-26T05:19:48.751Z,99.99
2019-02-26T05:20:48.408Z,99.99
2019-02-26T05:21:46.800Z,99.99
2019-02-26T05:22:46.874Z,99.99
2019-02-26T05:23:49.355Z,99.99
2019-02-26T05:24:48.251Z,99.99
2019-02-26T05:25:46.957Z,99.99
2019-02-26T05:26:46.992Z,99.99
2019-02-26T05:27:48.651Z,99.99
2019-02-26T05:28:49.154Z,99.99
2019-02-26T05:29:49.245Z,99.99
2019-02-26T05:30:49.535Z,99.99
2019-02-26T05:31:47.183Z,99.99
2019-02-26T05:32:47.253Z,99.99
2019-02-26T05:33:49.566Z,99.99
2019-02-26T05:34:50.145Z,99.99
2019-02-26T05:35:48.973Z,99.99
2019-02-26T05:36:47.378Z,99.99
2019-02-26T05:37:47.432Z,99.99
2019-02-26T05:38:49.157Z,99.99
2019-02-26T05:39:49.093Z,99.99
2019-02-26T05:40:48.214Z,99.99
2019-02-26T05:41:47.585Z,99.99
2019-02-26T05:42:47.653Z,99.99
2019-02-26T05:43:52.087Z,99.99
2019-02-26T05:44:47.694Z,99.99
2019-02-26T05:45:48.689Z,99.99
2019-02-26T05:46:50.153Z,99.99
2019-02-26T05:47:50.582Z,99.99
2019-02-26T05:48:48.678Z,99.99
2019-02-26T05:49:47.880Z,99.99
2019-02-26T05:50:47.918Z,99.99
2019-02-26T05:51:47.954Z,99.99
2019-02-26T05:52:50.402Z,99.99
2019-02-26T05:53:48.060Z,99.99
2019-02-26T05:54:48.072Z,99.99
2019-02-26T05:55:50.653Z,99.99
2019-02-26T05:56:49.849Z,99.99
2019-02-26T05:57:48.193Z,99.99
2019-02-26T05:58:48.250Z,99.99
2019-02-26T05:59:48.373Z,99.99
2019-02-26T06:00:48.301Z,99.99
2019-02-26T06:01:51.923Z,99.99
2019-02-26T06:02:50.977Z,99.99
2019-02-26T06:03:49.723Z,99.99
2019-02-26T06:04:48.454Z,99.99
2019-02-26T06:05:48.979Z,99.99
2019-02-26T06:06:50.498Z,99.99
2019-02-26T06:07:48.573Z,99.99
2019-02-26T06:08:48.632Z,99.99
2019-02-26T06:09:51.008Z,99.99
2019-02-26T06:10:48.695Z,99.99
2019-02-26T06:11:50.143Z,99.99
2019-02-26T06:12:48.764Z,99.99
2019-02-26T06:13:48.871Z,99.99
2019-02-26T06:14:48.837Z,99.99
2019-02-26T06:15:51.242Z,99.99
2019-02-26T06:16:50.851Z,99.99
2019-02-26T06:17:50.839Z,99.99
2019-02-26T06:18:51.699Z,99.99
2019-02-26T06:19:49.053Z,99.99
2019-02-26T06:20:50.911Z,99.99
2019-02-26T06:21:49.790Z,99.99
2019-02-26T06:22:49.155Z,99.99
2019-02-26T06:23:49.190Z,99.99
2019-02-26T06:24:49.244Z,99.99
2019-02-26T06:25:49.258Z,99.99
2019-02-26T06:26:49.308Z,99.99
2019-02-26T06:27:49.346Z,99.99
2019-02-26T06:28:50.512Z,99.99
2019-02-26T06:29:52.869Z,99.99
2019-02-26T06:30:49.455Z,99.99
2019-02-26T06:31:49.506Z,99.99
2019-02-26T06:32:49.533Z,99.99
2019-02-26T06:33:50.619Z,99.99
2019-02-26T06:34:49.636Z,99.99
2019-02-26T06:35:49.658Z,99.99
2019-02-26T06:36:51.469Z,99.99
2019-02-26T06:37:49.726Z,99.99
2019-02-26T06:38:51.902Z,99.99
2019-02-26T06:39:52.666Z,99.99
2019-02-26T06:40:51.358Z,99.99
2019-02-26T06:41:51.269Z,99.99
2019-02-26T06:42:49.920Z,99.99
2019-02-26T06:43:50.792Z,99.99
2019-02-26T06:44:51.363Z,99.99
2019-02-26T06:45:50.057Z,99.99
2019-02-26T06:46:50.080Z,99.99
2019-02-26T06:47:51.294Z,99.99
2019-02-26T06:48:50.149Z,99.99
2019-02-26T06:49:50.745Z,99.99
2019-02-26T06:50:50.336Z,99.99
2019-02-26T06:51:52.049Z,99.99
2019-02-26T06:52:50.710Z,99.99
2019-02-26T06:53:51.789Z,99.99
2019-02-26T06:54:54.758Z,99.99
2019-02-26T06:55:50.446Z,99.99
2019-02-26T06:56:51.128Z,99.99
2019-02-26T06:57:52.837Z,99.99
2019-02-26T06:58:50.543Z,99.99
2019-02-26T06:59:50.996Z,99.99
2019-02-26T07:00:54.702Z,99.99
2019-02-26T07:01:50.676Z,99.99
2019-02-26T07:02:50.705Z,99.99
2019-02-26T07:03:50.741Z,99.99
2019-02-26T07:04:50.777Z,99.99
2019-02-26T07:05:50.839Z,99.99
2019-02-26T07:06:50.886Z,99.99
2019-02-26T07:07:54.192Z,99.99
2019-02-26T07:08:51.641Z,99.99
2019-02-26T07:09:50.977Z,99.99
2019-02-26T07:10:51.035Z,99.99
2019-02-26T07:11:51.112Z,99.99
2019-02-26T07:12:51.120Z,99.99
2019-02-26T07:13:51.134Z,99.99
2019-02-26T07:14:53.019Z,99.99
2019-02-26T07:15:51.213Z,99.99
2019-02-26T07:16:51.270Z,99.99
2019-02-26T07:17:51.299Z,99.99
2019-02-26T07:18:51.340Z,99.99
2019-02-26T07:19:53.822Z,99.99
2019-02-26T07:20:54.572Z,99.99
2019-02-26T07:21:52.968Z,99.99
2019-02-26T07:22:51.672Z,99.99
2019-02-26T07:23:53.604Z,99.99
2019-02-26T07:24:53.791Z,99.99
2019-02-26T07:25:51.611Z,99.99
2019-02-26T07:26:51.669Z,99.99
2019-02-26T07:27:53.483Z,99.99
2019-02-26T07:28:51.727Z,99.99
2019-02-26T07:29:52.391Z,99.99
2019-02-26T07:30:51.816Z,99.99
2019-02-26T07:31:53.965Z,99.99
2019-02-26T07:32:51.891Z,99.99
2019-02-26T07:33:53.363Z,99.99
2019-02-26T07:34:52.237Z,99.99
2019-02-26T07:35:52.274Z,99.99
2019-02-26T07:36:52.543Z,99.99
2019-02-26T07:37:52.717Z,99.99
2019-02-26T07:38:54.006Z,99.99
2019-02-26T07:39:52.174Z,99.99
2019-02-26T07:40:54.170Z,99.99
2019-02-26T07:41:54.250Z,99.99
2019-02-26T07:42:52.315Z,99.99
2019-02-26T07:43:54.585Z,99.99
2019-02-26T07:44:52.384Z,99.99
2019-02-26T07:45:52.421Z,99.99
2019-02-26T07:46:52.473Z,99.99
2019-02-26T07:47:55.408Z,99.99
2019-02-26T07:48:53.873Z,99.99
2019-02-26T07:49:56.524Z,99.99
2019-02-26T07:50:52.630Z,99.99
2019-02-26T07:51:52.674Z,99.99
2019-02-26T07:52:54.446Z,99.99
2019-02-26T07:53:54.290Z,99.99
2019-02-26T07:54:52.798Z,99.60
2019-02-26T07:55:52.857Z,96.12
2019-02-26T07:56:55.009Z,92.46
2019-02-26T07:57:53.280Z,91.13
2019-02-26T07:58:57.026Z,91.75
2019-02-26T07:59:53.022Z,91.75
2019-02-26T08:00:53.061Z,89.98
2019-02-26T08:01:53.106Z,88.41
2019-02-26T08:02:55.866Z,87.17
2019-02-26T08:03:53.336Z,87.13
2019-02-26T08:04:53.236Z,87.98
2019-02-26T08:05:53.292Z,87.07
2019-02-26T08:06:54.996Z,86.22
2019-02-26T08:07:55.804Z,86.69
2019-02-26T08:08:53.420Z,87.17
2019-02-26T08:09:53.465Z,86.69
2019-02-26T08:10:53.516Z,85.78
2019-02-26T08:11:53.553Z,83.83
2019-02-26T08:12:53.657Z,83.06
2019-02-26T08:13:54.394Z,82.49
2019-02-26T08:14:53.696Z,82.24
2019-02-26T08:15:55.151Z,81.24
2019-02-26T08:16:56.071Z,79.80
2019-02-26T08:17:57.522Z,79.17
2019-02-26T08:18:54.866Z,78.09
2019-02-26T08:19:53.950Z,79.67
2019-02-26T08:20:55.425Z,80.64
2019-02-26T08:21:55.010Z,82.92
2019-02-26T08:22:54.598Z,83.44
2019-02-26T08:23:54.145Z,83.39
2019-02-26T08:24:55.420Z,82.59
2019-02-26T08:25:55.478Z,83.40
2019-02-26T08:26:54.269Z,83.54
2019-02-26T08:27:56.382Z,84.49
2019-02-26T08:28:54.376Z,82.91
2019-02-26T08:29:56.526Z,81.48
2019-02-26T08:30:55.229Z,80.76
2019-02-26T08:31:56.681Z,79.65
2019-02-26T08:32:56.412Z,79.14
2019-02-26T08:33:54.646Z,80.20
2019-02-26T08:34:59.248Z,82.26
2019-02-26T08:35:56.095Z,85.70
2019-02-26T08:36:54.745Z,88.56
2019-02-26T08:37:54.793Z,90.03
2019-02-26T08:38:57.098Z,90.32
2019-02-26T08:39:57.551Z,90.32
2019-02-26T08:40:54.942Z,90.89
2019-02-26T08:41:54.988Z,90.99
2019-02-26T08:42:55.055Z,91.13
2019-02-26T08:43:56.469Z,90.60
2019-02-26T08:44:55.926Z,89.13
2019-02-26T08:45:55.183Z,89.56
2019-02-26T08:46:55.232Z,90.22
2019-02-26T08:47:55.355Z,92.03
2019-02-26T08:48:55.330Z,91.99
2019-02-26T08:49:55.397Z,92.03
2019-02-26T08:50:55.871Z,92.89
2019-02-26T08:51:55.531Z,91.60
2019-02-26T08:52:57.929Z,90.61
2019-02-26T08:53:57.191Z,90.75
2019-02-26T08:54:55.707Z,88.75
2019-02-26T08:55:56.291Z,88.27
2019-02-26T08:56:55.722Z,87.60
2019-02-26T08:57:56.511Z,87.65
2019-02-26T08:58:55.810Z,87.23
2019-02-26T08:59:55.869Z,87.13
2019-02-26T09:00:55.929Z,87.23
2019-02-26T09:01:55.963Z,86.41
2019-02-26T09:02:56.729Z,86.36
2019-02-26T09:03:58.329Z,86.65
2019-02-26T09:04:56.115Z,86.32
2019-02-26T09:06:03.221Z,87.27
2019-02-26T09:06:57.579Z,88.94
2019-02-26T09:07:56.248Z,90.75
2019-02-26T09:08:57.980Z,90.28
2019-02-26T09:09:57.600Z,89.99
2019-02-26T09:10:56.416Z,90.75
2019-02-26T09:11:58.875Z,90.47
2019-02-26T09:12:56.496Z,91.22
2019-02-26T09:13:59.398Z,91.13
2019-02-26T09:14:56.597Z,91.22
2019-02-26T09:16:00.068Z,91.89
2019-02-26T09:16:59.057Z,92.79
2019-02-26T09:17:56.739Z,90.08
2019-02-26T09:18:56.784Z,87.27
2019-02-26T09:20:08.438Z,85.84
2019-02-26T09:20:56.926Z,86.75
2019-02-26T09:21:56.925Z,87.56
2019-02-26T09:22:58.749Z,88.04
2019-02-26T09:23:57.849Z,88.37
2019-02-26T09:24:59.464Z,87.65
2019-02-26T09:25:59.576Z,88.66
2019-02-26T09:26:58.291Z,91.66
2019-02-26T09:27:57.218Z,92.46
2019-02-26T09:28:57.281Z,91.70
2019-02-26T09:29:57.325Z,91.94
2019-02-26T09:31:01.067Z,92.27
2019-02-26T09:31:57.426Z,93.55
2019-02-26T09:32:59.129Z,94.08
2019-02-26T09:33:57.522Z,95.89
2019-02-26T09:34:59.132Z,95.94
2019-02-26T09:35:57.607Z,94.22
2019-02-26T09:36:58.258Z,93.89
2019-02-26T09:38:00.704Z,92.84
2019-02-26T09:38:57.753Z,92.75
2019-02-26T09:39:59.230Z,92.27
2019-02-26T09:40:57.846Z,92.65
2019-02-26T09:41:59.445Z,92.56
2019-02-26T09:42:59.995Z,91.80
2019-02-26T09:43:59.335Z,91.99
2019-02-26T09:45:00.088Z,92.46
2019-02-26T09:45:58.092Z,91.84
2019-02-26T09:47:00.057Z,91.08
2019-02-26T09:47:58.295Z,91.42
2019-02-26T09:49:00.318Z,91.65
2019-02-26T09:49:58.476Z,90.99
2019-02-26T09:50:58.333Z,91.61
2019-02-26T09:51:59.152Z,91.70
2019-02-26T09:52:59.248Z,91.70
2019-02-26T09:53:58.944Z,92.13
2019-02-26T09:54:58.528Z,90.32
2019-02-26T09:55:58.587Z,91.22
2019-02-26T09:56:58.650Z,90.42
2019-02-26T09:57:58.712Z,90.18
2019-02-26T09:58:58.724Z,90.56
2019-02-26T10:00:00.225Z,90.51
2019-02-26T10:00:58.819Z,90.13
2019-02-26T10:02:00.729Z,89.56
2019-02-26T10:02:58.991Z,88.70
2019-02-26T10:04:00.839Z,88.60
2019-02-26T10:04:59.026Z,88.51
2019-02-26T10:05:59.065Z,88.75
2019-02-26T10:06:59.180Z,88.18
2019-02-26T10:08:00.525Z,87.89
2019-02-26T10:08:59.217Z,88.37
2019-02-26T10:10:00.511Z,87.27
2019-02-26T10:11:00.196Z,86.55
2019-02-26T10:11:59.373Z,86.36
2019-02-26T10:13:01.940Z,86.22
2019-02-26T10:13:59.475Z,87.85
2019-02-26T10:15:01.691Z,88.27
2019-02-26T10:16:02.047Z,87.60
2019-02-26T10:16:59.610Z,87.60
2019-02-26T10:18:01.951Z,87.03
2019-02-26T10:18:59.718Z,87.13
2019-02-26T10:20:01.597Z,86.84
2019-02-26T10:20:59.815Z,85.99
2019-02-26T10:22:00.817Z,86.55
2019-02-26T10:23:01.215Z,86.18
2019-02-26T10:24:01.793Z,86.18
2019-02-26T10:25:00.010Z,85.17
2019-02-26T10:26:01.055Z,84.12
2019-02-26T10:27:02.980Z,83.84
2019-02-26T10:28:03.111Z,83.36
2019-02-26T10:29:04.510Z,84.45
2019-02-26T10:30:02.130Z,84.59
2019-02-26T10:31:04.195Z,81.40
2019-02-26T10:32:00.371Z,81.68
2019-02-26T10:33:02.696Z,80.92
2019-02-26T10:34:02.864Z,81.02
2019-02-26T10:35:00.518Z,82.41
2019-02-26T10:36:00.573Z,82.12
2019-02-26T10:37:00.607Z,82.69
2019-02-26T10:38:05.125Z,84.64
2019-02-26T10:39:02.753Z,84.92
2019-02-26T10:40:00.806Z,84.88
2019-02-26T10:41:01.911Z,84.98
2019-02-26T10:42:02.508Z,86.94
2019-02-26T10:43:00.954Z,87.51
2019-02-26T10:44:00.960Z,88.18
2019-02-26T10:45:01.016Z,87.98
2019-02-26T10:46:01.062Z,87.23
2019-02-26T10:47:03.295Z,87.93
2019-02-26T10:48:01.781Z,87.50
2019-02-26T10:49:01.216Z,86.07
2019-02-26T10:50:01.279Z,83.50
2019-02-26T10:51:03.655Z,83.78
2019-02-26T10:52:01.363Z,85.50
2019-02-26T10:53:07.239Z,85.25
2019-02-26T10:54:02.778Z,84.26
2019-02-26T10:55:01.544Z,85.02
2019-02-26T10:56:01.571Z,84.79
2019-02-26T10:57:04.574Z,85.93
2019-02-26T10:58:06.796Z,87.50
2019-02-26T10:59:03.520Z,85.64
2019-02-26T11:00:02.604Z,83.29
2019-02-26T11:01:05.207Z,81.58
2019-02-26T11:02:03.154Z,80.76
2019-02-26T11:03:01.932Z,79.00
2019-02-26T11:04:04.216Z,80.57
2019-02-26T11:05:02.053Z,78.75
2019-02-26T11:06:04.576Z,76.60
2019-02-26T11:07:04.924Z,75.49
2019-02-26T11:08:05.696Z,75.10
2019-02-26T11:09:02.229Z,76.64
2019-02-26T11:10:02.297Z,75.64
2019-02-26T11:11:04.495Z,76.40
2019-02-26T11:12:05.132Z,76.98
2019-02-26T11:13:02.422Z,77.40
2019-02-26T11:14:02.498Z,76.08
2019-02-26T11:15:04.492Z,76.33
2019-02-26T11:16:03.107Z,78.01
2019-02-26T11:17:02.640Z,79.19
2019-02-26T11:18:02.684Z,81.10
2019-02-26T11:19:04.279Z,80.28
2019-02-26T11:20:04.580Z,79.65
2019-02-26T11:21:02.836Z,76.60
2019-02-26T11:22:04.254Z,75.45
2019-02-26T11:23:04.124Z,75.07
2019-02-26T11:24:03.627Z,75.98
2019-02-26T11:25:03.092Z,77.19
2019-02-26T11:26:04.181Z,77.72
2019-02-26T11:27:03.190Z,79.44
2019-02-26T11:28:05.625Z,78.10
2019-02-26T11:29:03.258Z,77.53
2019-02-26T11:30:05.072Z,77.20
2019-02-26T11:31:03.375Z,77.97
2019-02-26T11:32:04.586Z,78.16
2019-02-26T11:33:06.089Z,76.79
2019-02-26T11:34:06.479Z,79.07
2019-02-26T11:35:03.552Z,80.22
2019-02-26T11:36:05.274Z,81.17
2019-02-26T11:37:08.511Z,80.22
2019-02-26T11:38:03.706Z,80.44
2019-02-26T11:39:05.070Z,81.25
2019-02-26T11:40:05.510Z,79.71
2019-02-26T11:41:03.889Z,76.08
2019-02-26T11:42:03.921Z,74.02
2019-02-26T11:43:11.245Z,72.05
2019-02-26T11:44:07.176Z,72.14
2019-02-26T11:45:06.635Z,71.63
2019-02-26T11:46:06.281Z,74.55
2019-02-26T11:47:04.179Z,75.07
2019-02-26T11:48:06.129Z,75.07
2019-02-26T11:49:04.269Z,73.67
2019-02-26T11:50:06.842Z,74.11
2019-02-26T11:51:04.372Z,75.26
2019-02-26T11:52:04.653Z,75.83
2019-02-26T11:53:04.473Z,75.47
2019-02-26T11:54:05.065Z,76.39
2019-02-26T11:55:06.544Z,76.77
2019-02-26T11:56:04.629Z,77.44
2019-02-26T11:57:07.454Z,77.15
2019-02-26T11:58:07.748Z,77.82
2019-02-26T11:59:06.613Z,77.91
2019-02-26T12:00:06.699Z,76.23
2019-02-26T12:01:04.880Z,76.90
2019-02-26T12:02:06.382Z,75.18
2019-02-26T12:03:05.000Z,74.57
2019-02-26T12:04:06.046Z,75.53
2019-02-26T12:05:05.602Z,76.90
2019-02-26T12:06:07.044Z,74.88
2019-02-26T12:07:07.418Z,74.05
2019-02-26T12:08:05.258Z,72.47
2019-02-26T12:09:06.117Z,69.89
2019-02-26T12:10:09.632Z,69.79
2019-02-26T12:11:06.797Z,69.62
2019-02-26T12:12:06.215Z,71.28
2019-02-26T12:13:05.518Z,70.27
2019-02-26T12:14:05.592Z,68.90
2019-02-26T12:15:07.268Z,69.89
2019-02-26T12:16:05.653Z,68.93
2019-02-26T12:17:05.705Z,68.74
2019-02-26T12:18:05.777Z,69.31
2019-02-26T12:19:08.163Z,68.26
2019-02-26T12:20:05.862Z,66.86
2019-02-26T12:21:07.986Z,66.86
2019-02-26T12:22:06.157Z,66.70
2019-02-26T12:23:08.015Z,68.26
2019-02-26T12:24:08.882Z,68.74
2019-02-26T12:25:10.559Z,67.65
2019-02-26T12:26:06.177Z,67.78
2019-02-26T12:27:07.331Z,67.40
2019-02-26T12:28:08.252Z,66.25
2019-02-26T12:29:06.370Z,65.07
2019-02-26T12:30:07.225Z,66.06
2019-02-26T12:31:08.131Z,68.06
2019-02-26T12:32:06.552Z,68.48
2019-02-26T12:33:07.705Z,67.46
2019-02-26T12:34:08.385Z,67.02
2019-02-26T12:35:08.614Z,64.88
2019-02-26T12:36:07.554Z,64.59
2019-02-26T12:37:09.839Z,64.56
2019-02-26T12:38:17.523Z,66.28
2019-02-26T12:39:06.883Z,65.58
2019-02-26T12:40:06.917Z,66.50
2019-02-26T12:41:09.027Z,67.27
2019-02-26T12:42:08.032Z,68.12
2019-02-26T12:43:11.046Z,69.08
2019-02-26T12:44:10.971Z,68.22
2019-02-26T12:45:09.817Z,67.97
2019-02-26T12:46:08.346Z,68.06
2019-02-26T12:47:07.286Z,67.30
2019-02-26T12:48:10.050Z,67.62
2019-02-26T12:49:09.412Z,66.79
2019-02-26T12:50:09.725Z,66.13
2019-02-26T12:51:07.700Z,65.01
2019-02-26T12:52:07.549Z,63.96
2019-02-26T12:53:09.511Z,63.96